Scroll for more >

River gauges, storages, and weirs in the Murray–Darling Basin

Type Locationsort descending River Water level Flow Volume Release Water temp Salinity Rainfall
River Gauge Albury (Union Bridge) Murray 1.11 m 24/08/2017 14:00 Not measured Not measured Not measured 9.4°C 24/08/2017 14:00 53.7 μS/cm 24/08/2017 14:00 Not measured Full data
River Gauge Balranald Murrumbidgee 5.12 m 24/08/2017 13:45 7062 ML/Day 24/08/2017 13:45 Not measured Not measured 11.1°C 24/08/2017 13:45 171.1 μS/cm 24/08/2017 13:45 Not measured Full data
River Gauge Bandiana Kiewa 2.84 m 24/08/2017 13:45 4554 ML/Day 24/08/2017 13:45 Not measured Not measured 8.5°C 24/08/2017 13:45 52.9 μS/cm 24/08/2017 13:45 Not measured Full data
River Gauge Biggara Murray 0.87 m 24/08/2017 14:00 1758 ML/Day 24/08/2017 14:00 Not measured Not measured 8.2°C 24/08/2017 14:00 39.2 μS/cm 24/08/2017 14:00 1.0 mm 24/08/2017 9:00 Full data
River Gauge Bringenbrong Bridge Murray 1.69 m 24/08/2017 14:00 4943 ML/Day 24/08/2017 14:00 Not measured Not measured Not measured Not measured Not measured Full data
River Gauge Burtundy Darling 0.78 m 24/08/2017 13:15 270 ML/Day 24/08/2017 13:15 Not measured Not measured 13.5°C 24/08/2017 13:15 688.5 μS/cm 24/08/2017 13:15 Not measured Full data
River Gauge Colemans Mitta 1.24 m 24/08/2017 14:15 618 ML/Day 24/08/2017 14:15 Not measured Not measured 10.2°C 24/08/2017 13:45 61.5 μS/cm 24/08/2017 13:45 Not measured Full data
River Gauge Colignan Murray 3.01 m 24/08/2017 13:30 14386 ML/Day 24/08/2017 13:30 Not measured Not measured 12.9°C 24/08/2017 13:30 177.0 μS/cm 24/08/2017 13:30 Not measured Full data
River Gauge Corowa Murray 1.67 m 24/08/2017 14:00 6154 ML/Day 24/08/2017 14:00 Not measured Not measured 10.2°C 24/08/2017 14:00 48.7 μS/cm 24/08/2017 14:00 Not measured Full data
Storage Dartmouth Dam Mitta 474.49 m 24/08/2017 14:15 Not measured 3146 GL 24/08/2017 14:15 Not measured Not measured Not measured Not measured Full data
River Gauge Doctors Point Murray 2.07 m 24/08/2017 14:00 4694 ML/Day 24/08/2017 14:00 Not measured Not measured 9.2°C 24/08/2017 14:00 50.4 μS/cm 24/08/2017 14:00 Not measured Full data
River Gauge Echuca Wharf Murray 87.61 m 24/08/2017 11:45 Not measured Not measured Not measured Not measured Not measured Not measured Full data
River Gauge Edward Escape Wakool 0.06 m 24/08/2017 13:45 10 ML/Day 24/08/2017 13:45 Not measured Not measured 11.1°C 24/08/2017 13:45 41.6 μS/cm 24/08/2017 13:45 Not measured Full data
River Gauge Edward River Offtake Murray 2.75 m 24/08/2017 14:00 2127 ML/Day 24/08/2017 14:00 Not measured Not measured 10.9°C 24/08/2017 13:45 41.8 μS/cm 24/08/2017 13:45 Not measured Full data
Weirs Euston Weir Downstream Murray 44.57 m 24/08/2017 13:45 15103 ML/Day 24/08/2017 13:45 Not measured Not measured 11.5°C 24/08/2017 13:45 145.2 μS/cm 24/08/2017 13:45 Not measured Full data
Weirs Euston Weir Upstream Murray 47.57 m 24/08/2017 8:00 Not measured 36 GL 24/08/2017 7:45 Not measured Not measured Not measured 0.0 mm 23/08/2017 9:00 Full data
River Gauge Flow to South Australia Murray Not measured Not measured Not measured 6586.0 ML/d24/08/2017 7:45 Not measured Not measured Not measured Full data
River Gauge Frenchman Creek Murray 27.01 m 24/08/2017 7:45 Not measured Not measured 7723.9 ML/d24/08/2017 7:45 Not measured Not measured Not measured Full data
River Gauge Gulpa Creek Offtake Murray 3.14 m 24/08/2017 13:45 828 ML/Day 24/08/2017 13:45 Not measured Not measured Not measured Not measured Not measured Full data
River Gauge Hinnomunjie Mitta 1.08 m 24/08/2017 13:45 1590 ML/Day 24/08/2017 13:45 Not measured Not measured 7.0°C 24/08/2017 13:45 24.1 μS/cm 24/08/2017 13:45 0.8 mm 24/08/2017 9:00 Full data
Storage Hume Dam Murray 189.97 m 24/08/2017 14:15 Not measured 2614 GL 24/08/2017 14:15 600.0 ML/d24/08/2017 8:00 Not measured Not measured 0.2 mm 24/08/2017 9:00 Full data
River Gauge Jingellic Murray 2.17 m 24/08/2017 13:45 8557 ML/Day 24/08/2017 13:45 Not measured Not measured 8.8°C 24/08/2017 13:45 40.9 μS/cm 24/08/2017 13:45 0.4 mm 24/08/2017 9:00 Full data
River Gauge Kerang Loddon 0.36 m 24/08/2017 13:45 175 ML/Day 24/08/2017 13:45 Not measured Not measured 11.1°C 24/08/2017 13:45 342.4 μS/cm 24/08/2017 13:45 Not measured Full data
River Gauge Lake Albert Murray 0.84 m 24/08/2017 5:45 Not measured 286 GL 24/08/2017 5:45 Not measured Not measured Not measured Not measured Full data
River Gauge Lake Alexandrina Murray 0.79 m 24/08/2017 5:45 Not measured 1640 GL 24/08/2017 5:45 Not measured Not measured 568.2 μS/cm 24/08/2017 12:45 Not measured Full data
Storage Lake Victoria Murray 25.38 m 24/08/2017 12:45 Not measured 489 GL 24/08/2017 12:45 Not measured 11.9°C 24/08/2017 12:45 218.9 μS/cm 24/08/2017 12:45 Not measured Full data
Weirs Lock 1 Downstream Murray 0.82 m 24/08/2017 12:15 Not measured Not measured 4331.3 ML/d24/08/2017 7:45 Not measured Not measured Not measured Full data
Weirs Lock 1 Upstream Murray 3.12 m 24/08/2017 12:15 Not measured Not measured Not measured 12.9°C 24/08/2017 12:15 373.3 μS/cm 24/08/2017 12:15 Not measured Full data
Weirs Lock 2 Downstream Murray 3.3 m 24/08/2017 12:15 Not measured Not measured Not measured Not measured Not measured Not measured Full data
Weirs Lock 2 Upstream Murray 6.46 m 24/08/2017 12:15 Not measured Not measured Not measured 12.7°C 24/08/2017 12:15 346.9 μS/cm 24/08/2017 12:15 Not measured Full data
Weirs Lock 3 Downstream Murray 6.62 m 24/08/2017 12:15 Not measured Not measured Not measured Not measured Not measured Not measured Full data
Weirs Lock 3 Upstream Murray 9.85 m 24/08/2017 12:15 Not measured Not measured Not measured Not measured Not measured Not measured Full data
Weirs Lock 4 Downstream Murray 10.43 m 24/08/2017 12:15 Not measured Not measured Not measured Not measured Not measured Not measured Full data
Weirs Lock 4 Upstream Murray 13.22 m 24/08/2017 12:15 Not measured Not measured Not measured Not measured Not measured Not measured Full data
Weirs Lock 5 Downstream Murray 13.37 m 24/08/2017 12:15 Not measured Not measured Not measured Not measured Not measured Not measured Full data
Weirs Lock 5 Upstream Murray 16.62 m 24/08/2017 12:15 Not measured Not measured Not measured 12.7°C 24/08/2017 12:15 289.3 μS/cm 24/08/2017 12:15 Not measured Full data
Weirs Lock 6 Downstream Murray 16.67 m 24/08/2017 12:15 Not measured Not measured Not measured Not measured Not measured Not measured Full data
Weirs Lock 6 Upstream Murray 19.26 m 24/08/2017 12:15 Not measured Not measured Not measured 13.3°C 24/08/2017 12:15 237.1 μS/cm 24/08/2017 12:15 Not measured Full data
Weirs Lock 7 Downstream Murray 20.42 m 24/08/2017 12:15 Not measured Not measured Not measured Not measured Not measured Not measured Full data
Weirs Lock 7 Upstream Murray 21.9 m 24/08/2017 12:15 Not measured Not measured Not measured 13.1°C 24/08/2017 12:15 194.1 μS/cm 24/08/2017 12:15 Not measured Full data
Weirs Lock 8 Upstream Murray 23.68 m 24/08/2017 12:15 Not measured Not measured Not measured 12.8°C 24/08/2017 12:15 190.4 μS/cm 24/08/2017 12:15 Not measured Full data
Weirs Lock 9 Downstream Murray 23.86 m 24/08/2017 12:15 Not measured Not measured Not measured Not measured Not measured Not measured Full data
Weirs Lock 9 Upstream Murray 27.45 m 24/08/2017 12:15 Not measured Not measured Not measured 12.7°C 24/08/2017 12:15 198.4 μS/cm 24/08/2017 12:15 Not measured Full data
River Gauge McCoy Bridge Goulburn 3.02 m 24/08/2017 13:45 3880 ML/Day 24/08/2017 13:45 Not measured Not measured 10.3°C 24/08/2017 13:45 147.8 μS/cm 24/08/2017 13:45 Not measured Full data
Storage Menindee Lakes Darling Not measured Not measured 739 GL 24/08/2017 7:45 Not measured Not measured Not measured Not measured Full data
Weirs Mildura Weir downstream Murray 31.32 m 24/08/2017 13:30 Not measured Not measured Not measured 12.7°C 24/08/2017 13:30 237.2 μS/cm 24/08/2017 13:30 Not measured Full data
River Gauge Morgan Downstream Murray Not measured Not measured Not measured 3414.4 ML/d24/08/2017 9:30 Not measured 366.2 μS/cm 24/08/2017 11:45 Not measured Full data
River Gauge Mulwala Canal Murray Not measured Not measured Not measured 1.9 ML/d24/08/2017 7:45 Not measured Not measured Not measured Full data
River Gauge Mundoo Barrage Murray 0.71 m 24/08/2017 7:45 Not measured Not measured Not measured Not measured Not measured Not measured Full data
River Gauge Murray Bridge Murray 0.78 m 24/08/2017 9:15 Not measured Not measured Not measured 12.1°C 24/08/2017 9:15 504.4 μS/cm 24/08/2017 9:15 Not measured Full data
River Gauge Peechelba Ovens 130.18 m 24/08/2017 13:45 16033 ML/Day 24/08/2017 13:45 Not measured Not measured 9.4°C 24/08/2017 13:45 80.5 μS/cm 24/08/2017 13:45 Not measured Full data
River Gauge Pinegrove Murray 1.61 m 24/08/2017 14:00 795 ML/Day 24/08/2017 14:00 Not measured Not measured 8.7°C 24/08/2017 14:00 72.5 μS/cm 24/08/2017 14:00 0.0 mm 24/08/2017 9:00 Full data
River Gauge Rochester Campaspe 1.96 m 24/08/2017 13:45 261 ML/Day 24/08/2017 13:45 Not measured Not measured 9.7°C 24/08/2017 13:45 609.7 μS/cm 24/08/2017 13:45 2.6 mm 24/08/2017 9:00 Full data
River Gauge Rufus River Murray 20.43 m 24/08/2017 7:45 Not measured Not measured 922.0 ML/d24/08/2017 7:45 Not measured 262.3 μS/cm 24/08/2017 11:45 Not measured Full data
Weirs Steven's Weir Downstream Wakool 2.07 m 24/08/2017 13:45 2089 ML/Day 24/08/2017 13:45 Not measured Not measured 11.3°C 24/08/2017 13:45 49.6 μS/cm 24/08/2017 13:45 0.0 mm 22/08/2017 9:00 Full data
Weirs Steven's Weir Upstream Wakool 4.4 m 24/08/2017 14:00 Not measured Not measured Not measured Not measured Not measured Not measured Full data
River Gauge Stoney Crossing Murray 1.52 m 24/08/2017 13:45 649 ML/Day 24/08/2017 13:45 Not measured 647.6 ML/d24/08/2017 7:45 12.8°C 24/08/2017 13:45 303.6 μS/cm 24/08/2017 13:45 Not measured Full data
River Gauge Swan Hill Murray 1.61 m 24/08/2017 13:15 8333 ML/Day 24/08/2017 13:15 Not measured Not measured 11.7°C 24/08/2017 13:15 122.1 μS/cm 24/08/2017 13:15 Not measured Full data
River Gauge Tallandoon Mitta 1.95 m 24/08/2017 13:45 2153 ML/Day 24/08/2017 13:45 Not measured Not measured 10.5°C 24/08/2017 13:45 26.8 μS/cm 24/08/2017 13:45 Not measured Full data
River Gauge Tauwitchere Barrage Murray 0.57 m 24/08/2017 12:45 Not measured Not measured Not measured Not measured Not measured Not measured Full data
River Gauge Tocumwal Murray 4.4 m 24/08/2017 13:45 26972 ML/Day 24/08/2017 13:45 Not measured Not measured 10.3°C 24/08/2017 13:45 55.9 μS/cm 24/08/2017 13:45 Not measured Full data
River Gauge Torrumbarry Headworks Murray 84.49 m 24/08/2017 13:45 Not measured Not measured 983.2 ML/d24/08/2017 13:45 Not measured Not measured Not measured Full data
Weirs Torrumbarry Weir Downstream Murray 3.5 m 24/08/2017 13:45 11315 ML/Day 24/08/2017 13:45 Not measured Not measured 10.6°C 24/08/2017 13:45 104.6 μS/cm 24/08/2017 13:45 Not measured Full data
Weirs Torrumbarry Weir Upstream Murray 86 m 24/08/2017 8:45 Not measured 36 GL 24/08/2017 8:45 Not measured 10.4°C 24/08/2017 8:45 102.0 μS/cm 24/08/2017 8:45 2.5 mm 24/08/2017 9:00 Full data
River Gauge Wakool Canal Wakool 0.22 m 24/08/2017 13:45 Not measured Not measured 99.5 ML/d24/08/2017 8:45 Not measured Not measured Not measured Full data
River Gauge Wakool Junction Murray 3.81 m 24/08/2017 13:45 10861 ML/Day 24/08/2017 13:45 Not measured Not measured 11.5°C 24/08/2017 13:45 140.4 μS/cm 24/08/2017 13:45 Not measured Full data
River Gauge Weir 32 Upstream Darling 1.44 m 24/08/2017 13:45 340 ML/Day 24/08/2017 13:45 Not measured Not measured 13.3°C 24/08/2017 13:45 686.0 μS/cm 24/08/2017 13:45 Not measured Full data
Weirs Wentworth Weir Murray 28.14 m 24/08/2017 13:45 Not measured Not measured 13567.8 ML/d24/08/2017 7:45 Not measured 173.0 μS/cm 24/08/2017 7:45 0.0 mm 23/08/2017 9:00 Full data
River Gauge Wilcania Darling 0.53 m 24/08/2017 13:45 282 ML/Day 24/08/2017 13:45 Not measured Not measured 13.7°C 24/08/2017 13:45 276.7 μS/cm 24/08/2017 13:45 Not measured Full data
River Gauge Yarrawonga Main Channel Murray 123.11 m 24/08/2017 13:45 Not measured Not measured 271.2 ML/d24/08/2017 8:45 Not measured Not measured Not measured Full data
Weirs Yarrawonga Weir Downstream Murray 3.28 m 24/08/2017 14:00 22806 ML/Day 24/08/2017 14:00 Not measured Not measured 10.4°C 24/08/2017 14:00 52.5 μS/cm 24/08/2017 14:00 Not measured Full data
Weirs Yarrawonga Weir Upstream Murray 124.74 m 24/08/2017 13:45 Not measured Not measured Not measured Not measured Not measured 0.6 mm 24/08/2017 9:00 Full data